Terminal Aerodrome Forecast
Issued by NWS

Home | Current Version | Previous Version | Text Only | Print | Product List | Glossary On
Versions: 1 2 3 4 5 6 7 8 9 10 11 12 13 14 15 16 17 18 19 20 21 22 23 24 25 26 27
000
FTUS43 KMQT 222328
TAFSAW
TAF
KSAW 222328Z 2300/2324 04012KT 3/4SM -RASNPL OVC002
     FM230300 03014KT 1/2SM RASN OVC002
     FM230800 02016G24KT 1SM -RA OVC003
     FM231200 01016G27KT 4SM -SHRASN OVC004
     FM232200 35013G21KT 6SM BR BKN035
     FM232300 34011KT P6SM BKN060=

USA.gov is the U.S. government's official web portal to all federal, state and local government web resources and services.